KCPR/CPR METAR and TAF weather

Enter ICAO airport designator
Station Type Date Time Source
KCPR METAR 2024/02/26 15:53 UTC NOAA

KCPR 261553Z 22028G39KT 10SM CLR 07/M07 A2955 RMK AO2 PK WND 22041/1543 SLP990 T00721067


Station Type Date Time Source
KCPR Decoded METAR 2024/02/26 15:53 UTC NOAA

NATRONA COUNTY INTERNATIONAL AIRPORT , WY, United States (KCPR) 42-54N 106-28W 1621M
Feb 26, 2024 - 10:53 AM EST / 2024.02.26 1553 UTC
Wind: from the SW (220 degrees) at 32 MPH (28 KT) gusting to 45 MPH (39 KT):0
Visibility: 10 mile(s):0
Sky conditions: clear
Temperature: 45.0 F (7.2 C)
Dew Point: 19.9 F (-6.7 C)
Relative Humidity: 36%
Pressure (altimeter): 29.55 in. Hg (1000 hPa)
ob: KCPR 261553Z 22028G39KT 10SM CLR 07/M07 A2955 RMK AO2 PK WND 22041/1543 SLP990 T00721067
cycle: 16

Station Type Date Time Source
KCPR TAF 2024/02/26 12:22 UTC NOAA